Time;durP1;ratioP1;P1;durP2;ratioP2;P2;SDS_P1;SDS_P2;PMS_P1;PMS_P2;Temp;Humidity;BMP_temperature;BMP_pressure;BME280_temperature;BME280_humidity;BME280_pressure;Samples;Min_cycle;Max_cycle;Signal;HPM_P1;HPM_P2
2022/12/03 00:01:58;;;;;;;25.40;15.43;;;;;;;0.59;100.00;102190.47;4990869;28;20026;-63
2022/12/03 00:04:23;;;;;;;23.67;15.40;;;;;;;0.58;100.00;102185.22;4990037;28;20109;-62
2022/12/03 00:06:49;;;;;;;21.80;15.00;;;;;;;0.59;100.00;102190.47;4990071;28;20053;-62
2022/12/03 00:09:14;;;;;;;24.13;15.47;;;;;;;0.59;100.00;102181.94;4989628;28;20023;-62
2022/12/03 00:11:39;;;;;;;22.97;15.00;;;;;;;0.61;100.00;102187.19;4990005;28;20062;-63
2022/12/03 00:14:04;;;;;;;21.27;14.63;;;;;;;0.61;100.00;102185.53;4990253;28;20117;-61
2022/12/03 00:16:30;;;;;;;21.50;15.40;;;;;;;0.62;100.00;102174.56;4989562;28;20077;-62
2022/12/03 00:18:55;;;;;;;21.87;14.70;;;;;;;0.63;100.00;102178.91;4989916;28;20030;-62
2022/12/03 00:21:20;;;;;;;21.50;15.60;;;;;;;0.63;100.00;102173.78;4990032;28;20587;-63
2022/12/03 00:23:45;;;;;;;22.80;14.80;;;;;;;0.64;100.00;102167.03;4989752;28;20089;-61
2022/12/03 00:26:11;;;;;;;24.67;16.57;;;;;;;0.63;100.00;102168.69;4990198;28;20085;-63
2022/12/03 00:28:36;;;;;;;22.93;14.97;;;;;;;0.64;100.00;102170.50;4990054;28;20034;-63
2022/12/03 00:31:01;;;;;;;21.87;15.37;;;;;;;0.62;100.00;102166.91;4989493;28;20084;-63
2022/12/03 00:33:27;;;;;;;23.10;15.03;;;;;;;0.61;100.00;102165.13;4989736;28;20022;-63
2022/12/03 00:35:52;;;;;;;27.57;16.10;;;;;;;0.61;100.00;102162.56;4989722;28;20064;-63
2022/12/03 00:38:17;;;;;;;24.73;16.67;;;;;;;0.62;100.00;102164.34;4989264;28;20059;-63
2022/12/03 00:40:42;;;;;;;23.00;15.77;;;;;;;0.62;100.00;102161.81;4989629;28;20023;-63
2022/12/03 00:43:08;;;;;;;26.77;16.40;;;;;;;0.63;100.00;102162.72;4988594;28;20042;-63
2022/12/03 00:45:33;;;;;;;25.13;15.37;;;;;;;0.63;100.00;102155.94;4989204;28;20069;-63
2022/12/03 00:47:58;;;;;;;23.97;16.00;;;;;;;0.65;100.00;102161.19;4989379;28;20034;-63
2022/12/03 00:50:24;;;;;;;23.27;15.80;;;;;;;0.64;100.00;102155.19;4989413;28;20010;-62
2022/12/03 00:52:49;;;;;;;25.40;15.83;;;;;;;0.65;100.00;102156.97;4989437;28;20034;-62
2022/12/03 00:55:15;;;;;;;25.10;16.03;;;;;;;0.66;100.00;102157.88;4989040;28;20049;-62
2022/12/03 00:57:41;;;;;;;22.20;15.47;;;;;;;0.66;100.00;102158.78;4989765;28;20053;-62
2022/12/03 01:00:07;;;;;;;24.73;16.40;;;;;;;0.65;100.00;102156.97;4989745;28;20026;-63
2022/12/03 01:02:32;;;;;;;26.57;16.83;;;;;;;0.67;100.00;102155.47;4990409;28;20030;-63
2022/12/03 01:04:58;;;;;;;24.97;16.40;;;;;;;0.66;100.00;102158.78;4988792;28;20450;-63
2022/12/03 01:07:23;;;;;;;25.13;16.43;;;;;;;0.67;100.00;102160.56;4989686;28;20449;-64
2022/12/03 01:09:48;;;;;;;24.67;16.83;;;;;;;0.68;100.00;102157.28;4989483;28;20053;-63
2022/12/03 01:12:14;;;;;;;25.53;16.83;;;;;;;0.69;100.00;102165.81;4989812;28;20041;-63
2022/12/03 01:14:39;;;;;;;23.53;16.50;;;;;;;0.69;100.00;102153.06;4989232;28;20471;-62
2022/12/03 01:17:05;;;;;;;24.77;17.30;;;;;;;0.68;100.00;102156.38;4989740;28;20113;-63
2022/12/03 01:19:31;;;;;;;28.33;17.03;;;;;;;0.68;100.00;102151.28;4989840;28;20048;-63
2022/12/03 01:21:56;;;;;;;25.73;17.40;;;;;;;0.67;100.00;102141.81;4989875;28;20030;-63
2022/12/03 01:24:21;;;;;;;23.30;16.30;;;;;;;0.68;100.00;102157.28;4989587;28;20072;-63
2022/12/03 01:26:47;;;;;;;25.60;16.93;;;;;;;0.67;100.00;102146.91;4989054;28;20034;-63
2022/12/03 01:29:13;;;;;;;28.87;17.17;;;;;;;0.68;100.00;102153.81;4989860;28;20112;-63
2022/12/03 01:34:22;;;;;;;28.07;17.70;;;;;;;0.69;100.00;102161.63;4989880;28;20085;-63
2022/12/03 01:36:47;;;;;;;27.37;18.07;;;;;;;0.68;100.00;102159.84;4989955;28;20034;-63
2022/12/03 01:39:13;;;;;;;23.67;16.43;;;;;;;0.66;100.00;102161.34;4988811;28;20564;-63
2022/12/03 01:41:39;;;;;;;27.57;17.67;;;;;;;0.67;100.00;102152.91;4989596;28;20034;-63
2022/12/03 01:44:23;;;;;;;25.23;17.93;;;;;;;0.67;100.00;102155.47;4989306;28;20037;-63
2022/12/03 01:46:50;;;;;;;28.47;18.30;;;;;;;0.69;100.00;102153.97;4989387;28;20060;-63
2022/12/03 01:49:20;;;;;;;24.97;17.83;;;;;;;0.68;100.00;102147.09;4988914;28;20026;-63
2022/12/03 01:51:47;;;;;;;28.83;17.80;;;;;;;0.68;100.00;102146.16;4989601;28;20035;-62
2022/12/03 01:54:19;;;;;;;24.87;17.40;;;;;;;0.67;100.00;102145.25;4988535;28;20208;-63
2022/12/03 01:56:45;;;;;;;28.53;18.77;;;;;;;0.67;100.00;102145.25;4989302;28;20034;-63
2022/12/03 01:59:14;;;;;;;25.13;17.63;;;;;;;0.68;100.00;102141.97;4988567;28;20038;-63
2022/12/03 02:01:39;;;;;;;27.50;17.73;;;;;;;0.68;100.00;102147.09;4988918;28;20620;-63
2022/12/03 02:04:05;;;;;;;30.17;19.30;;;;;;;0.67;100.00;102146.91;4989404;28;20064;-63
2022/12/03 02:06:30;;;;;;;26.53;18.23;;;;;;;0.67;100.00;102145.25;4988541;28;20144;-63
2022/12/03 02:08:58;;;;;;;29.03;19.03;;;;;;;0.65;100.00;102141.66;4988760;28;20141;-63
2022/12/03 02:11:28;;;;;;;28.23;18.40;;;;;;;0.68;100.00;102141.06;4988646;28;20028;-63
2022/12/03 02:14:00;;;;;;;27.77;19.80;;;;;;;0.70;100.00;102142.13;4988634;28;20033;-63
2022/12/03 02:16:25;;;;;;;;;;;;;;;0.68;100.00;102141.97;4989259;28;20027;-63
2022/12/03 02:18:50;;;;;;;30.03;19.00;;;;;;;0.68;100.00;102141.97;4988949;28;19914;-62
2022/12/03 02:21:37;;;;;;;29.23;18.93;;;;;;;0.68;100.00;102143.63;4987445;28;20037;-63
2022/12/03 02:24:36;;;;;;;26.93;18.60;;;;;;;0.66;100.00;102133.28;4978524;28;20031;-63
2022/12/03 02:27:02;;;;;;;28.83;18.57;;;;;;;0.68;100.00;102138.50;4978427;28;20112;-63
2022/12/03 02:29:27;;;;;;;28.90;19.47;;;;;;;0.67;100.00;102135.06;4988213;28;20125;-63
2022/12/03 02:31:53;;;;;;;29.23;18.90;;;;;;;0.67;100.00;102131.59;4988233;28;20390;-63
2022/12/03 02:34:39;;;;;;;28.83;19.03;;;;;;;0.67;100.00;102131.59;4988506;28;20026;-63
2022/12/03 02:37:08;;;;;;;26.97;18.40;;;;;;;0.67;100.00;102135.06;4988340;28;20033;-63
2022/12/03 02:39:37;;;;;;;28.50;18.67;;;;;;;0.67;100.00;102129.94;4988035;28;20053;-63
2022/12/03 02:44:47;;;;;;;28.73;18.87;;;;;;;0.67;100.00;102129.94;4988250;28;20073;-63
2022/12/03 02:47:13;;;;;;;28.20;18.30;;;;;;;0.68;100.00;102130.84;4976068;28;20034;-61
2022/12/03 02:49:39;;;;;;;25.57;17.10;;;;;;;0.67;100.00;102119.75;4988461;28;20076;-63
2022/12/03 02:52:04;;;;;;;30.77;19.50;;;;;;;0.67;100.00;102122.28;4987556;28;20042;-63
2022/12/03 02:54:29;;;;;;;26.73;18.13;;;;;;;0.68;100.00;102123.19;4988240;28;20125;-63
2022/12/03 02:56:55;;;;;;;33.90;21.13;;;;;;;0.68;100.00;102121.56;4979755;28;20026;-64
2022/12/03 02:59:20;;;;;;;25.97;17.57;;;;;;;0.69;100.00;102123.34;4987662;28;20058;-63
2022/12/03 03:01:46;;;;;;;28.63;18.47;;;;;;;0.68;100.00;102123.19;4988160;28;20027;-63
2022/12/03 03:04:12;;;;;;;28.13;18.10;;;;;;;0.68;100.00;102116.47;4987811;28;20493;-62
2022/12/03 03:06:37;;;;;;;28.73;19.37;;;;;;;0.65;100.00;102120.38;4988324;28;20026;-63
2022/12/03 03:09:03;;;;;;;28.00;19.10;;;;;;;0.66;100.00;102123.06;4987805;28;20033;-62
2022/12/03 03:11:28;;;;;;;29.17;19.30;;;;;;;0.65;100.00;102111.03;4987973;28;20026;-63
2022/12/03 03:13:54;;;;;;;28.73;18.77;;;;;;;0.67;100.00;102113.72;4983228;28;20387;-63
2022/12/03 03:16:19;;;;;;;28.97;20.03;;;;;;;0.68;100.00;102111.34;4987632;28;20040;-63
2022/12/03 03:18:44;;;;;;;29.10;19.13;;;;;;;0.68;100.00;102111.34;4988011;28;20045;-63
2022/12/03 03:21:11;;;;;;;29.10;19.40;;;;;;;0.69;100.00;102113.13;4987459;28;20066;-63
2022/12/03 03:23:36;;;;;;;29.57;19.37;;;;;;;0.68;100.00;102106.25;4987559;28;20080;-62
2022/12/03 03:26:06;;;;;;;29.57;19.77;;;;;;;0.70;100.00;102106.38;4988028;28;20416;-63
2022/12/03 03:28:34;;;;;;;31.27;19.23;;;;;;;0.69;100.00;102105.47;4988208;28;20030;-63
2022/12/03 03:31:02;;;;;;;30.07;19.00;;;;;;;0.69;100.00;102102.94;4987700;28;20132;-63
2022/12/03 03:33:27;;;;;;;30.33;20.07;;;;;;;0.67;100.00;102091.66;4987788;28;20089;-63
2022/12/03 03:35:53;;;;;;;28.27;19.57;;;;;;;0.68;100.00;102098.59;4988183;28;20093;-63
2022/12/03 03:38:21;;;;;;;28.90;19.20;;;;;;;0.68;100.00;102098.59;4987237;28;20026;-62
2022/12/03 03:40:48;;;;;;;29.50;20.47;;;;;;;0.69;100.00;102099.47;4987361;28;20026;-63
2022/12/03 03:43:14;;;;;;;29.53;19.97;;;;;;;0.70;100.00;102098.72;4987602;28;20451;-63
2022/12/03 03:45:40;;;;;;;26.47;18.33;;;;;;;0.70;100.00;102096.19;4986244;28;20046;-63
2022/12/03 03:48:05;;;;;;;31.73;20.63;;;;;;;0.67;100.00;102094.22;4987304;28;20041;-63
2022/12/03 03:50:31;;;;;;;29.70;20.20;;;;;;;0.68;100.00;102096.03;4987404;28;20038;-62
2022/12/03 03:52:58;;;;;;;29.23;20.57;;;;;;;0.68;100.00;102088.38;4987469;28;20084;-63
2022/12/03 03:55:24;;;;;;;33.07;19.80;;;;;;;0.67;100.00;102089.13;4987601;28;20121;-63
2022/12/03 03:57:50;;;;;;;31.53;20.07;;;;;;;0.67;100.00;102094.22;4987483;28;20695;-63
2022/12/03 04:00:16;;;;;;;31.20;20.20;;;;;;;0.68;100.00;102088.38;4987490;28;20034;-63
2022/12/03 04:02:41;;;;;;;28.40;20.27;;;;;;;0.69;100.00;102097.81;4987788;28;20489;-63
2022/12/03 04:05:14;;;;;;;33.77;21.33;;;;;;;0.67;100.00;102089.13;4987136;28;20037;-63
2022/12/03 04:07:39;;;;;;;32.00;20.80;;;;;;;0.69;100.00;102091.81;4988011;28;20027;-64
2022/12/03 04:12:54;;;;;;;30.13;19.83;;;;;;;0.68;100.00;102088.38;4987977;28;20061;-63
2022/12/03 04:12:56;;;;;;;31.00;20.13;;;;;;;0.70;100.00;102089.41;4975256;28;20045;-63
2022/12/03 04:15:23;;;;;;;27.88;20.20;;;;;;;0.71;100.00;102083.56;4987448;28;20029;-63
2022/12/03 04:18:41;;;;;;;30.97;20.93;;;;;;;0.73;100.00;102087.88;4989391;28;20027;-62
2022/12/03 04:20:33;;;;;;;29.57;20.13;;;;;;;0.74;100.00;102084.59;4990513;28;20030;-63
2022/12/03 04:22:59;;;;;;;29.00;19.50;;;;;;;0.73;100.00;102081.13;4991022;28;20077;-63
2022/12/03 04:30:52;;;;;;;30.37;20.63;;;;;;;0.70;100.00;102084.28;4991362;28;20173;-63
2022/12/03 04:36:04;;;;;;;32.00;20.80;;;;;;;0.67;100.00;102084.00;4989902;28;20077;-63
2022/12/03 04:38:29;;;;;;;32.50;20.37;;;;;;;0.66;100.00;102089.88;4990212;28;20073;-63
2022/12/03 04:41:02;;;;;;;32.57;22.53;;;;;;;0.64;100.00;102090.50;4990572;28;20029;-63
2022/12/03 04:44:31;;;;;;;29.93;20.60;;;;;;;0.65;100.00;102085.53;4990640;28;20038;-63
2022/12/03 04:46:20;;;;;;;28.43;20.50;;;;;;;0.65;100.00;102082.97;4977975;28;20050;-63
2022/12/03 04:48:45;;;;;;;29.13;20.17;;;;;;;0.65;100.00;102079.53;4990480;28;20033;-62
2022/12/03 04:51:10;;;;;;;29.63;19.87;;;;;;;0.62;100.00;102077.59;4988525;28;20379;-63
2022/12/03 04:53:35;;;;;;;29.33;20.00;;;;;;;0.65;100.00;102079.53;4990110;28;20043;-63
2022/12/03 04:56:01;;;;;;;30.13;20.30;;;;;;;0.65;100.00;102084.66;4990589;28;20402;-63
2022/12/03 04:58:26;;;;;;;29.90;20.03;;;;;;;0.63;100.00;102071.72;4990135;28;20044;-63
2022/12/03 05:00:51;;;;;;;31.97;21.93;;;;;;;0.63;100.00;102079.38;4990172;28;20486;-62
2022/12/03 05:03:17;;;;;;;33.03;20.27;;;;;;;0.63;100.00;102071.72;4976583;28;20451;-63
2022/12/03 05:05:42;;;;;;;30.80;21.17;;;;;;;0.63;100.00;102070.84;4990007;28;20030;-63
2022/12/03 05:08:07;;;;;;;30.77;21.23;;;;;;;0.59;100.00;102070.53;4989958;28;20029;-62
2022/12/03 05:10:32;;;;;;;31.47;20.77;;;;;;;0.60;100.00;102063.78;4989948;28;20049;-62
2022/12/03 05:12:58;;;;;;;31.27;20.77;;;;;;;0.62;100.00;102066.47;4990053;28;20109;-63
2022/12/03 05:15:23;;;;;;;29.67;20.27;;;;;;;0.61;100.00;102063.06;4989034;28;20072;-63
2022/12/03 05:17:48;;;;;;;32.30;21.97;;;;;;;0.63;100.00;102065.75;4990278;28;20026;-63
2022/12/03 05:22:57;;;;;;;35.37;22.50;;;;;;;0.54;100.00;102068.34;4990003;28;20038;-63
2022/12/03 05:25:22;;;;;;;35.37;23.43;;;;;;;0.53;100.00;102066.53;4989464;28;20026;-63
2022/12/03 05:27:48;;;;;;;32.77;22.20;;;;;;;0.47;100.00;102054.09;4989058;28;20053;-63
2022/12/03 05:30:13;;;;;;;31.13;20.80;;;;;;;0.54;100.00;102066.66;4989946;28;20114;-63
2022/12/03 05:32:39;;;;;;;31.97;21.73;;;;;;;0.53;100.00;102063.97;4989122;28;20058;-63
2022/12/03 05:35:04;;;;;;;30.40;20.30;;;;;;;0.55;100.00;102067.56;4989522;28;20144;-63
2022/12/03 05:37:30;;;;;;;32.33;22.03;;;;;;;0.56;100.00;102064.25;4988495;28;20533;-63
2022/12/03 05:39:55;;;;;;;34.97;22.37;;;;;;;0.51;100.00;102060.38;4989403;28;20054;-63
2022/12/03 05:45:05;;;;;;;31.33;20.27;;;;;;;0.53;100.00;102053.78;4989413;28;20458;-63
2022/12/03 05:47:30;;;;;;;34.17;22.03;;;;;;;0.54;100.00;102046.25;4988840;28;20053;-63
2022/12/03 05:49:55;;;;;;;31.87;22.03;;;;;;;0.55;100.00;102047.16;4989720;28;20394;-62
2022/12/03 05:52:20;;;;;;;32.93;21.30;;;;;;;0.57;100.00;102050.75;4988799;28;20030;-63
2022/12/03 05:54:46;;;;;;;31.77;22.27;;;;;;;0.56;100.00;102041.28;4988655;28;20036;-63
2022/12/03 05:57:11;;;;;;;32.10;21.70;;;;;;;0.57;100.00;102051.66;4988556;28;20092;-63
2022/12/03 05:59:36;;;;;;;33.00;21.20;;;;;;;0.55;100.00;102049.72;4989122;28;20502;-63
2022/12/03 06:02:02;;;;;;;35.47;21.53;;;;;;;0.56;100.00;102048.94;4989357;28;20291;-63
2022/12/03 06:04:27;;;;;;;33.87;22.33;;;;;;;0.54;100.00;102045.38;4988868;28;20434;-63
2022/12/03 06:06:52;;;;;;;33.73;22.20;;;;;;;0.54;100.00;102047.94;4977730;28;20031;-63
2022/12/03 06:09:17;;;;;;;33.13;22.37;;;;;;;0.54;100.00;102047.94;4987419;28;20100;-63
2022/12/03 06:11:43;;;;;;;34.73;22.77;;;;;;;0.56;100.00;102048.94;4989589;28;20459;-63
2022/12/03 06:14:08;;;;;;;35.63;23.37;;;;;;;0.56;100.00;102044.75;4988254;28;20034;-63
2022/12/03 06:16:33;;;;;;;35.00;22.70;;;;;;;0.55;100.00;102049.72;4989045;28;20423;-63
2022/12/03 06:18:59;;;;;;;36.67;22.90;;;;;;;0.54;100.00;102040.28;4988502;28;20037;-63
2022/12/03 06:21:24;;;;;;;33.93;21.57;;;;;;;0.55;100.00;102044.63;4988453;28;20442;-64
2022/12/03 06:23:49;;;;;;;32.33;22.37;;;;;;;0.56;100.00;102043.84;4975856;28;20060;-63
2022/12/03 06:26:14;;;;;;;35.50;23.47;;;;;;;0.55;100.00;102042.06;4988412;28;20022;-63
2022/12/03 06:28:45;;;;;;;34.33;21.77;;;;;;;0.55;100.00;102042.97;4984593;28;20054;-63
2022/12/03 06:31:10;;;;;;;33.67;21.33;;;;;;;0.55;100.00;102042.97;4983765;28;20049;-63
2022/12/03 06:33:35;;;;;;;34.07;21.83;;;;;;;0.56;100.00;102044.75;4987973;28;20375;-63
2022/12/03 06:36:01;;;;;;;33.87;21.90;;;;;;;0.56;100.00;102048.94;4987661;28;20027;-63
2022/12/03 06:38:26;;;;;;;33.43;21.93;;;;;;;0.57;100.00;102046.56;4987886;28;20467;-63
2022/12/03 06:40:51;;;;;;;34.60;22.80;;;;;;;0.57;100.00;102043.09;4986951;28;20541;-62
2022/12/03 06:43:17;;;;;;;32.90;20.77;;;;;;;0.58;100.00;102048.34;4987290;28;20033;-63
2022/12/03 06:45:42;;;;;;;35.47;21.13;;;;;;;0.58;100.00;102040.69;4987330;28;20054;-63
2022/12/03 06:48:07;;;;;;;34.83;22.23;;;;;;;0.57;100.00;102040.56;4988304;28;20108;-63
2022/12/03 06:50:32;;;;;;;34.87;21.77;;;;;;;0.58;100.00;102039.78;4988259;28;20035;-63
2022/12/03 06:52:58;;;;;;;34.07;23.63;;;;;;;0.58;100.00;102035.59;4987748;28;20925;-63
2022/12/03 06:55:23;;;;;;;35.93;22.90;;;;;;;0.58;100.00;102042.34;4987821;28;20081;-63
2022/12/03 06:57:48;;;;;;;32.50;20.47;;;;;;;0.59;100.00;102041.59;4987767;28;20029;-63
2022/12/03 07:00:14;;;;;;;32.97;21.73;;;;;;;0.59;100.00;102039.06;4988724;28;20031;-63
2022/12/03 07:02:39;;;;;;;34.03;22.13;;;;;;;0.58;100.00;102038.13;4986977;28;20494;-63
2022/12/03 07:05:05;;;;;;;37.40;21.37;;;;;;;0.58;100.00;102037.22;4988208;28;20026;-63
2022/12/03 07:07:30;;;;;;;32.00;20.57;;;;;;;0.58;100.00;102032.13;4987274;28;20081;-62
2022/12/03 07:09:56;;;;;;;40.37;23.03;;;;;;;0.57;100.00;102040.56;4988358;28;20026;-63
2022/12/03 07:12:21;;;;;;;33.93;21.37;;;;;;;0.56;100.00;102041.28;4987798;28;20027;-63
2022/12/03 07:14:46;;;;;;;34.53;21.97;;;;;;;0.56;100.00;102043.84;4988264;28;20133;-62
2022/12/03 07:17:12;;;;;;;32.80;21.50;;;;;;;0.57;100.00;102045.66;4987729;28;20026;-61
2022/12/03 07:19:37;;;;;;;33.60;19.93;;;;;;;0.56;100.00;102047.31;4988297;28;20041;-63
2022/12/03 07:22:02;;;;;;;32.60;20.80;;;;;;;0.56;100.00;102034.53;4987556;28;20458;-63
2022/12/03 07:24:27;;;;;;;35.90;22.53;;;;;;;0.57;100.00;102038.91;4987812;28;20513;-62
2022/12/03 07:26:53;;;;;;;33.77;21.80;;;;;;;0.57;100.00;102038.00;4986508;28;20019;-63
2022/12/03 07:29:19;;;;;;;32.77;21.80;;;;;;;0.57;100.00;102038.91;4986784;28;20026;-61
2022/12/03 07:31:44;;;;;;;34.77;21.57;;;;;;;0.57;100.00;102041.47;4985888;28;20027;-63
2022/12/03 07:34:09;;;;;;;32.17;21.30;;;;;;;0.57;100.00;102038.00;4985376;28;20037;-62
2022/12/03 07:36:35;;;;;;;31.47;20.63;;;;;;;0.58;100.00;102037.22;4986253;28;20360;-62
2022/12/03 07:39:00;;;;;;;34.30;21.23;;;;;;;0.57;100.00;102038.00;4986253;28;20057;-63
2022/12/03 07:41:25;;;;;;;34.70;21.47;;;;;;;0.58;100.00;102037.22;4986883;28;20018;-62
2022/12/03 07:43:51;;;;;;;34.37;21.40;;;;;;;0.58;100.00;102037.22;4987827;28;20037;-62
2022/12/03 07:46:16;;;;;;;34.63;20.57;;;;;;;0.58;100.00;102042.34;4985779;28;20051;-63
2022/12/03 07:48:41;;;;;;;34.90;20.37;;;;;;;0.59;100.00;102039.06;4984764;28;20037;-63
2022/12/03 07:51:07;;;;;;;32.43;20.47;;;;;;;0.58;100.00;102038.13;4988719;28;20209;-63
2022/12/03 07:53:32;;;;;;;31.07;19.83;;;;;;;0.58;100.00;102038.13;4991326;28;20387;-63
2022/12/03 07:55:57;;;;;;;32.97;19.60;;;;;;;0.58;100.00;102038.13;4991529;28;20386;-63
2022/12/03 07:58:22;;;;;;;33.70;21.40;;;;;;;0.58;100.00;102039.78;4991836;28;20029;-63
2022/12/03 08:00:48;;;;;;;36.43;19.67;;;;;;;0.52;100.00;102046.88;4990716;28;20026;-62
2022/12/03 08:03:13;;;;;;;33.57;20.47;;;;;;;0.52;100.00;102046.88;4991719;28;20289;-62
2022/12/03 08:05:38;;;;;;;30.33;19.10;;;;;;;0.50;100.00;102051.84;4991242;28;20053;-62
2022/12/03 08:08:04;;;;;;;31.50;19.77;;;;;;;0.52;100.00;102041.78;4983947;28;20050;-63
2022/12/03 08:10:29;;;;;;;33.70;19.13;;;;;;;0.52;100.00;102045.22;4985995;28;20026;-62
2022/12/03 08:12:58;;;;;;;33.43;20.83;;;;;;;0.49;100.00;102042.38;4990957;28;20289;-63
2022/12/03 08:15:26;;;;;;;29.30;19.03;;;;;;;0.51;100.00;102050.19;4990837;28;20037;-63
2022/12/03 08:18:10;;;;;;;33.27;19.40;;;;;;;0.51;100.00;102050.19;4991301;28;20029;-63
2022/12/03 08:20:38;;;;;;;31.07;18.93;;;;;;;0.53;100.00;102049.56;4990911;28;20026;-63
2022/12/03 08:23:11;;;;;;;31.97;20.30;;;;;;;0.49;100.00;102044.06;4991020;28;20022;-63
2022/12/03 08:25:36;;;;;;;30.90;18.57;;;;;;;0.49;100.00;102049.16;4990631;28;20058;-63
2022/12/03 08:28:11;;;;;;;31.77;19.23;;;;;;;0.51;100.00;102039.97;4989965;28;20121;-62
2022/12/03 08:30:36;;;;;;;32.80;19.53;;;;;;;0.52;100.00;102046.88;4990739;28;20482;-63
2022/12/03 08:33:15;;;;;;;32.53;19.83;;;;;;;0.53;100.00;102052.13;4987208;28;20089;-62
2022/12/03 08:35:47;;;;;;;31.87;19.47;;;;;;;0.55;100.00;102054.81;4983843;28;20185;-62
2022/12/03 08:38:13;;;;;;;31.43;20.17;;;;;;;0.53;100.00;102058.88;4989875;28;20028;-63
2022/12/03 08:40:40;;;;;;;31.93;18.90;;;;;;;0.53;100.00;102049.56;4990193;28;20034;-63
2022/12/03 08:43:22;;;;;;;35.30;20.87;;;;;;;0.54;100.00;102046.25;4990691;28;20194;-63
2022/12/03 08:45:48;;;;;;;33.90;19.10;;;;;;;0.51;100.00;102051.09;4989759;28;20046;-63
2022/12/03 08:48:28;;;;;;;33.13;19.60;;;;;;;0.56;100.00;102043.84;4989439;28;20027;-63
2022/12/03 08:50:57;;;;;;;31.67;18.97;;;;;;;0.57;100.00;102040.56;4989416;28;20026;-64
2022/12/03 08:53:28;;;;;;;34.53;18.80;;;;;;;0.58;100.00;102043.25;4990454;28;20317;-63
2022/12/03 08:55:56;;;;;;;31.57;19.60;;;;;;;0.60;100.00;102051.03;4988709;28;20033;-63
2022/12/03 08:58:39;;;;;;;31.77;19.40;;;;;;;0.61;100.00;102051.94;4990401;28;20022;-64
2022/12/03 09:01:11;;;;;;;32.70;19.43;;;;;;;0.62;100.00;102044.41;4990073;28;20069;-64
2022/12/03 09:03:37;;;;;;;;;;;;;;;0.64;100.00;102053.13;4989596;28;20550;-64
2022/12/03 09:06:03;;;;;;;31.63;19.87;;;;;;;0.65;100.00;102054.03;4989018;28;20389;-63
2022/12/03 09:08:28;;;;;;;31.80;19.73;;;;;;;0.62;100.00;102049.53;4989776;28;20034;-63
2022/12/03 09:10:53;;;;;;;33.73;20.23;;;;;;;0.61;100.00;102051.94;4989379;28;20034;-63
2022/12/03 09:13:19;;;;;;;32.57;19.97;;;;;;;0.59;100.00;102055.22;4989339;28;20042;-63
2022/12/03 09:15:44;;;;;;;31.07;19.67;;;;;;;0.61;100.00;102052.84;4988456;28;20038;-63
2022/12/03 09:18:09;;;;;;;32.93;20.20;;;;;;;0.57;100.00;102045.66;4989320;28;20030;-63
2022/12/03 09:20:35;;;;;;;35.27;19.63;;;;;;;0.58;100.00;102047.44;4987521;28;20475;-63
2022/12/03 09:23:00;;;;;;;35.63;21.10;;;;;;;0.58;100.00;102055.09;4989558;28;20415;-63
2022/12/03 09:25:25;;;;;;;34.07;17.80;;;;;;;0.59;100.00;102055.22;4988863;28;20088;-62
2022/12/03 09:27:51;;;;;;;33.90;19.97;;;;;;;0.60;100.00;102056.13;4988798;28;20455;-63
2022/12/03 09:30:16;;;;;;;37.60;19.27;;;;;;;0.57;100.00;102044.00;4989509;28;20068;-64
2022/12/03 09:32:41;;;;;;;35.80;19.20;;;;;;;0.56;100.00;102047.31;4988959;28;20365;-63
2022/12/03 09:35:07;;;;;;;31.97;20.00;;;;;;;0.53;100.00;102053.78;4989328;28;20394;-63
2022/12/03 09:37:33;;;;;;;32.57;19.77;;;;;;;0.52;100.00;102045.22;4988721;28;20026;-63
2022/12/03 09:39:58;;;;;;;37.23;20.30;;;;;;;0.45;100.00;102045.44;4989043;28;20027;-63
2022/12/03 09:42:24;;;;;;;38.20;20.20;;;;;;;0.46;100.00;102045.56;4989144;28;20845;-63
2022/12/03 09:44:49;;;;;;;35.37;21.07;;;;;;;0.49;100.00;102041.50;4987444;28;20065;-62
2022/12/03 09:47:15;;;;;;;34.80;20.90;;;;;;;0.50;100.00;102046.75;4988018;28;20391;-63
2022/12/03 09:49:41;;;;;;;34.17;19.90;;;;;;;0.49;100.00;102044.94;4988871;28;20076;-63
2022/12/03 09:52:09;;;;;;;30.17;19.07;;;;;;;0.46;100.00;102039.56;4988047;28;20027;-63
2022/12/03 09:54:36;;;;;;;31.87;19.90;;;;;;;0.44;100.00;102033.41;4988757;28;20391;-63
2022/12/03 09:57:03;;;;;;;30.10;17.97;;;;;;;0.44;100.00;102028.31;4988488;28;20471;-63
2022/12/03 09:59:33;;;;;;;34.60;18.70;;;;;;;0.44;100.00;102030.88;4988074;28;20033;-63
2022/12/03 10:02:00;;;;;;;33.53;19.50;;;;;;;0.38;100.00;102013.34;4988472;28;20516;-64
2022/12/03 10:04:26;;;;;;;31.23;17.87;;;;;;;0.35;100.00;102025.81;4988577;28;20022;-64
2022/12/03 10:06:52;;;;;;;27.87;16.80;;;;;;;0.35;100.00;102029.28;4988164;28;20026;-63
2022/12/03 10:09:24;;;;;;;29.00;17.53;;;;;;;0.34;100.00;102026.59;4987816;28;20057;-63
2022/12/03 10:11:50;;;;;;;26.83;15.10;;;;;;;0.31;100.00;102023.72;4988823;28;20018;-63
2022/12/03 10:14:17;;;;;;;29.17;17.27;;;;;;;0.25;100.00;102015.53;4987409;28;20226;-62
2022/12/03 10:16:43;;;;;;;28.60;17.27;;;;;;;0.27;100.00;102017.44;4988241;28;20106;-63
2022/12/03 10:19:17;;;;;;;25.37;15.67;;;;;;;0.26;100.00;102014.75;4987774;28;20109;-62
2022/12/03 10:21:43;;;;;;;24.40;15.10;;;;;;;0.27;100.00;102012.34;4987132;28;20038;-63
2022/12/03 10:24:31;;;;;;;24.27;14.50;;;;;;;0.26;100.00;102013.09;4988511;28;20018;-63
2022/12/03 10:26:59;;;;;;;24.83;14.33;;;;;;;0.28;100.00;101996.31;4988269;28;20033;-63
2022/12/03 10:29:34;;;;;;;26.90;15.67;;;;;;;0.31;100.00;102005.88;4988121;28;20471;-62
2022/12/03 10:32:08;;;;;;;25.27;16.20;;;;;;;0.28;100.00;102005.59;4988189;28;20026;-63
2022/12/03 10:34:37;;;;;;;28.97;15.90;;;;;;;0.30;100.00;102001.53;4987614;28;20014;-63
2022/12/03 10:37:20;;;;;;;26.87;16.20;;;;;;;0.29;100.00;101997.22;4987839;28;20515;-63
2022/12/03 10:40:07;;;;;;;29.63;16.97;;;;;;;0.25;100.00;101995.13;4987842;28;20029;-63
2022/12/03 10:42:38;;;;;;;27.07;17.33;;;;;;;0.25;100.00;101990.00;4987634;28;20026;-63
2022/12/03 10:45:17;;;;;;;26.70;16.20;;;;;;;0.22;100.00;101977.88;4987879;28;20050;-62
2022/12/03 10:48:00;;;;;;;27.17;15.63;;;;;;;0.22;100.00;101976.22;4987614;28;20057;-62
2022/12/03 10:50:25;;;;;;;26.37;16.00;;;;;;;0.26;100.00;101974.84;4987875;28;20038;-63
2022/12/03 10:52:50;;;;;;;23.93;16.03;;;;;;;0.30;100.00;101974.38;4987812;28;20403;-62
2022/12/03 10:55:16;;;;;;;26.13;15.60;;;;;;;0.32;100.00;101961.78;4988170;28;20407;-63
2022/12/03 10:57:41;;;;;;;22.80;14.63;;;;;;;0.37;100.00;101955.44;4980808;28;20031;-62
2022/12/03 11:00:07;;;;;;;23.50;14.20;;;;;;;0.42;100.00;101959.31;4981203;28;20023;-63
2022/12/03 11:02:32;;;;;;;24.30;16.00;;;;;;;0.45;100.00;101957.03;4987651;28;20069;-63
2022/12/03 11:04:58;;;;;;;21.30;14.07;;;;;;;0.47;100.00;101965.72;4987662;28;20037;-63
2022/12/03 11:07:25;;;;;;;22.13;14.07;;;;;;;0.49;100.00;101964.97;4986962;28;20030;-63
2022/12/03 11:09:54;;;;;;;21.67;13.53;;;;;;;0.47;100.00;101957.16;4987951;28;20022;-63
2022/12/03 11:12:25;;;;;;;24.30;14.83;;;;;;;0.48;100.00;101956.44;4987066;28;20061;-63
2022/12/03 11:14:50;;;;;;;24.65;14.95;;;;;;;0.46;100.00;101951.19;4987638;28;20034;-63
2022/12/03 11:17:45;;;;;;;23.43;15.10;;;;;;;0.45;100.00;101953.59;4987488;28;20022;-62
2022/12/03 11:20:21;;;;;;;21.73;13.87;;;;;;;0.42;100.00;101944.00;4987384;28;20026;-63
2022/12/03 11:22:48;;;;;;;22.03;14.67;;;;;;;0.40;100.00;101948.06;4987643;28;20058;-63
2022/12/03 11:25:23;;;;;;;22.57;14.47;;;;;;;0.40;100.00;101940.41;4987114;28;20360;-61
2022/12/03 11:28:14;;;;;;;25.97;15.17;;;;;;;0.40;100.00;101950.59;4991709;28;20434;-62
2022/12/03 11:30:55;;;;;;;23.30;15.25;;;;;;;0.41;100.00;101936.22;4990906;28;20022;-63